sensor_id;sensor_type;location;lat;lon;timestamp;pressure;altitude;pressure_sealevel;temperature;humidity
49377;BME280;35253;34.688;33.040;2023-05-23T00:01:29;100338.94;;;20.94;100.00
49377;BME280;35253;34.688;33.040;2023-05-23T00:04:01;100345.69;;;20.90;100.00
49377;BME280;35253;34.688;33.040;2023-05-23T00:06:27;100339.28;;;20.99;100.00
49377;BME280;35253;34.688;33.040;2023-05-23T00:08:53;100347.03;;;20.78;100.00
49377;BME280;35253;34.688;33.040;2023-05-23T00:11:19;100353.31;;;20.87;100.00
49377;BME280;35253;34.688;33.040;2023-05-23T00:13:48;100345.41;;;21.01;100.00
49377;BME280;35253;34.688;33.040;2023-05-23T00:16:15;100346.44;;;21.08;100.00
49377;BME280;35253;34.688;33.040;2023-05-23T00:18:41;100356.66;;;21.15;100.00
49377;BME280;35253;34.688;33.040;2023-05-23T00:21:07;100347.47;;;21.16;100.00
49377;BME280;35253;34.688;33.040;2023-05-23T00:23:34;100357.66;;;21.22;100.00
49377;BME280;35253;34.688;33.040;2023-05-23T00:25:59;100354.97;;;21.30;100.00
49377;BME280;35253;34.688;33.040;2023-05-23T00:28:25;100355.25;;;21.10;100.00
49377;BME280;35253;34.688;33.040;2023-05-23T00:30:51;100355.56;;;20.99;100.00
49377;BME280;35253;34.688;33.040;2023-05-23T00:33:17;100362.97;;;20.89;100.00
49377;BME280;35253;34.688;33.040;2023-05-23T00:35:46;100365.00;;;20.87;100.00
49377;BME280;35253;34.688;33.040;2023-05-23T00:38:13;100369.75;;;20.93;100.00
49377;BME280;35253;34.688;33.040;2023-05-23T00:40:39;100368.72;;;20.86;100.00
49377;BME280;35253;34.688;33.040;2023-05-23T00:43:05;100373.53;;;21.08;100.00
49377;BME280;35253;34.688;33.040;2023-05-23T00:45:32;100361.97;;;20.98;100.00
49377;BME280;35253;34.688;33.040;2023-05-23T00:47:58;100368.19;;;20.75;100.00
49377;BME280;35253;34.688;33.040;2023-05-23T00:50:24;100370.81;;;21.00;100.00
49377;BME280;35253;34.688;33.040;2023-05-23T00:52:54;100367.22;;;20.92;100.00
49377;BME280;35253;34.688;33.040;2023-05-23T00:55:24;100367.88;;;20.86;100.00
49377;BME280;35253;34.688;33.040;2023-05-23T00:57:52;100364.66;;;20.90;100.00
49377;BME280;35253;34.688;33.040;2023-05-23T01:00:20;100369.94;;;20.92;100.00
49377;BME280;35253;34.688;33.040;2023-05-23T01:02:47;100366.38;;;20.91;100.00
49377;BME280;35253;34.688;33.040;2023-05-23T01:05:16;100374.03;;;21.04;100.00
49377;BME280;35253;34.688;33.040;2023-05-23T01:07:46;100366.72;;;20.88;100.00
49377;BME280;35253;34.688;33.040;2023-05-23T01:10:13;100369.03;;;20.75;100.00
49377;BME280;35253;34.688;33.040;2023-05-23T01:12:55;100371.41;;;20.78;100.00
49377;BME280;35253;34.688;33.040;2023-05-23T01:16:12;100368.25;;;20.99;100.00
49377;BME280;35253;34.688;33.040;2023-05-23T01:18:15;100376.59;;;21.05;100.00
49377;BME280;35253;34.688;33.040;2023-05-23T01:20:51;100377.97;;;20.76;100.00
49377;BME280;35253;34.688;33.040;2023-05-23T01:28:44;100377.06;;;20.59;100.00
49377;BME280;35253;34.688;33.040;2023-05-23T01:31:10;100384.63;;;20.47;100.00
49377;BME280;35253;34.688;33.040;2023-05-23T01:33:39;100386.34;;;20.48;100.00
49377;BME280;35253;34.688;33.040;2023-05-23T01:36:06;100384.06;;;20.36;100.00
49377;BME280;35253;34.688;33.040;2023-05-23T01:38:33;100381.38;;;20.36;100.00
49377;BME280;35253;34.688;33.040;2023-05-23T01:40:59;100384.22;;;20.34;100.00
49377;BME280;35253;34.688;33.040;2023-05-23T01:43:24;100385.38;;;20.32;100.00
49377;BME280;35253;34.688;33.040;2023-05-23T01:45:52;100386.41;;;20.31;100.00
49377;BME280;35253;34.688;33.040;2023-05-23T01:48:20;100389.31;;;20.37;100.00
49377;BME280;35253;34.688;33.040;2023-05-23T01:50:47;100389.72;;;20.24;100.00
49377;BME280;35253;34.688;33.040;2023-05-23T01:53:15;100388.72;;;20.25;100.00
49377;BME280;35253;34.688;33.040;2023-05-23T01:55:41;100397.25;;;20.31;100.00
49377;BME280;35253;34.688;33.040;2023-05-23T01:58:07;100392.00;;;20.11;100.00
49377;BME280;35253;34.688;33.040;2023-05-23T02:00:33;100396.72;;;20.09;100.00
49377;BME280;35253;34.688;33.040;2023-05-23T02:02:59;100391.31;;;20.09;100.00
49377;BME280;35253;34.688;33.040;2023-05-23T02:05:25;100388.84;;;19.98;100.00
49377;BME280;35253;34.688;33.040;2023-05-23T02:07:51;100392.69;;;20.13;100.00
49377;BME280;35253;34.688;33.040;2023-05-23T02:10:17;100395.31;;;20.05;100.00
49377;BME280;35253;34.688;33.040;2023-05-23T02:12:43;100401.91;;;20.29;100.00
49377;BME280;35253;34.688;33.040;2023-05-23T02:15:09;100400.63;;;20.15;100.00
49377;BME280;35253;34.688;33.040;2023-05-23T02:17:35;100407.56;;;20.09;100.00
49377;BME280;35253;34.688;33.040;2023-05-23T02:20:04;100395.13;;;20.24;100.00
49377;BME280;35253;34.688;33.040;2023-05-23T02:22:30;100393.94;;;20.01;100.00
49377;BME280;35253;34.688;33.040;2023-05-23T02:24:56;100400.38;;;20.00;100.00
49377;BME280;35253;34.688;33.040;2023-05-23T02:27:22;100400.53;;;19.99;100.00
49377;BME280;35253;34.688;33.040;2023-05-23T02:29:48;100395.22;;;19.89;100.00
49377;BME280;35253;34.688;33.040;2023-05-23T02:32:13;100403.59;;;19.78;100.00
49377;BME280;35253;34.688;33.040;2023-05-23T02:34:39;100396.84;;;19.82;100.00
49377;BME280;35253;34.688;33.040;2023-05-23T02:37:05;100397.28;;;19.95;100.00
49377;BME280;35253;34.688;33.040;2023-05-23T02:39:33;100402.31;;;19.90;100.00
49377;BME280;35253;34.688;33.040;2023-05-23T02:41:59;100402.72;;;19.95;100.00
49377;BME280;35253;34.688;33.040;2023-05-23T02:44:24;100409.88;;;20.04;100.00
49377;BME280;35253;34.688;33.040;2023-05-23T02:46:50;100396.91;;;19.90;100.00
49377;BME280;35253;34.688;33.040;2023-05-23T02:49:16;100401.63;;;19.70;100.00
49377;BME280;35253;34.688;33.040;2023-05-23T02:51:41;100402.97;;;19.66;100.00
49377;BME280;35253;34.688;33.040;2023-05-23T02:54:07;100406.22;;;19.70;100.00
49377;BME280;35253;34.688;33.040;2023-05-23T02:56:32;100409.06;;;19.68;100.00
49377;BME280;35253;34.688;33.040;2023-05-23T02:58:58;100412.38;;;19.80;100.00
49377;BME280;35253;34.688;33.040;2023-05-23T03:01:24;100405.50;;;19.68;100.00
49377;BME280;35253;34.688;33.040;2023-05-23T03:03:50;100420.09;;;19.75;100.00
49377;BME280;35253;34.688;33.040;2023-05-23T03:06:15;100411.00;;;19.76;100.00
49377;BME280;35253;34.688;33.040;2023-05-23T03:08:41;100418.66;;;19.80;100.00
49377;BME280;35253;34.688;33.040;2023-05-23T03:11:07;100419.03;;;19.86;100.00
49377;BME280;35253;34.688;33.040;2023-05-23T03:13:34;100420.09;;;19.75;100.00
49377;BME280;35253;34.688;33.040;2023-05-23T03:16:00;100427.94;;;19.78;100.00
49377;BME280;35253;34.688;33.040;2023-05-23T03:18:25;100424.59;;;19.84;100.00
49377;BME280;35253;34.688;33.040;2023-05-23T03:20:51;100422.72;;;19.85;100.00
49377;BME280;35253;34.688;33.040;2023-05-23T03:23:17;100435.41;;;19.84;100.00
49377;BME280;35253;34.688;33.040;2023-05-23T03:25:43;100427.69;;;19.89;100.00
49377;BME280;35253;34.688;33.040;2023-05-23T03:28:09;100431.22;;;20.07;100.00
49377;BME280;35253;34.688;33.040;2023-05-23T03:30:36;100436.94;;;20.04;100.00
49377;BME280;35253;34.688;33.040;2023-05-23T03:33:02;100438.28;;;20.00;100.00
49377;BME280;35253;34.688;33.040;2023-05-23T03:35:28;100437.88;;;19.95;100.00
49377;BME280;35253;34.688;33.040;2023-05-23T03:37:55;100445.53;;;20.00;100.00
49377;BME280;35253;34.688;33.040;2023-05-23T03:40:20;100446.84;;;20.13;100.00
49377;BME280;35253;34.688;33.040;2023-05-23T03:42:47;100451.63;;;20.02;100.00
49377;BME280;35253;34.688;33.040;2023-05-23T03:45:16;100446.22;;;20.02;100.00
49377;BME280;35253;34.688;33.040;2023-05-23T03:47:42;100442.00;;;20.25;100.00
49377;BME280;35253;34.688;33.040;2023-05-23T03:50:08;100449.53;;;20.31;100.00
49377;BME280;35253;34.688;33.040;2023-05-23T03:52:34;100445.66;;;20.34;100.00
49377;BME280;35253;34.688;33.040;2023-05-23T03:55:00;100454.94;;;20.57;100.00
49377;BME280;35253;34.688;33.040;2023-05-23T03:57:25;100447.50;;;20.59;100.00
49377;BME280;35253;34.688;33.040;2023-05-23T03:59:51;100452.13;;;20.66;100.00
49377;BME280;35253;34.688;33.040;2023-05-23T04:02:17;100455.78;;;20.83;100.00
49377;BME280;35253;34.688;33.040;2023-05-23T04:04:42;100453.63;;;20.95;100.00
49377;BME280;35253;34.688;33.040;2023-05-23T04:07:08;100460.53;;;20.89;100.00
49377;BME280;35253;34.688;33.040;2023-05-23T04:09:34;100455.44;;;20.86;100.00
49377;BME280;35253;34.688;33.040;2023-05-23T04:11:59;100453.75;;;20.93;100.00
49377;BME280;35253;34.688;33.040;2023-05-23T04:14:25;100454.88;;;21.08;100.00
49377;BME280;35253;34.688;33.040;2023-05-23T04:16:52;100465.19;;;21.05;100.00
49377;BME280;35253;34.688;33.040;2023-05-23T04:19:18;100466.47;;;21.19;100.00
49377;BME280;35253;34.688;33.040;2023-05-23T04:21:43;100460.38;;;21.25;100.00
49377;BME280;35253;34.688;33.040;2023-05-23T04:24:09;100465.09;;;21.15;100.00
49377;BME280;35253;34.688;33.040;2023-05-23T04:26:35;100466.84;;;21.32;100.00
49377;BME280;35253;34.688;33.040;2023-05-23T04:29:03;100468.25;;;21.52;100.00
49377;BME280;35253;34.688;33.040;2023-05-23T04:31:30;100479.44;;;21.49;100.00
49377;BME280;35253;34.688;33.040;2023-05-23T04:33:55;100477.53;;;21.41;100.00
49377;BME280;35253;34.688;33.040;2023-05-23T04:36:22;100479.59;;;21.55;100.00
49377;BME280;35253;34.688;33.040;2023-05-23T04:38:48;100477.03;;;21.38;100.00
49377;BME280;35253;34.688;33.040;2023-05-23T04:41:14;100479.81;;;21.62;100.00
49377;BME280;35253;34.688;33.040;2023-05-23T04:43:41;100485.91;;;21.64;100.00
49377;BME280;35253;34.688;33.040;2023-05-23T04:46:08;100479.84;;;21.86;100.00
49377;BME280;35253;34.688;33.040;2023-05-23T04:48:35;100489.69;;;21.87;100.00
49377;BME280;35253;34.688;33.040;2023-05-23T04:51:08;100490.06;;;21.92;100.00
49377;BME280;35253;34.688;33.040;2023-05-23T04:53:34;100495.16;;;21.95;100.00
49377;BME280;35253;34.688;33.040;2023-05-23T04:56:01;100497.56;;;22.07;100.00
49377;BME280;35253;34.688;33.040;2023-05-23T04:58:27;100498.22;;;22.17;100.00
49377;BME280;35253;34.688;33.040;2023-05-23T05:00:52;100505.34;;;22.26;100.00
49377;BME280;35253;34.688;33.040;2023-05-23T05:03:18;100501.28;;;22.22;100.00
49377;BME280;35253;34.688;33.040;2023-05-23T05:05:44;100510.94;;;22.08;100.00
49377;BME280;35253;34.688;33.040;2023-05-23T05:08:09;100514.50;;;22.25;100.00
49377;BME280;35253;34.688;33.040;2023-05-23T05:10:36;100513.47;;;22.34;100.00
49377;BME280;35253;34.688;33.040;2023-05-23T05:13:02;100518.75;;;22.35;100.00
49377;BME280;35253;34.688;33.040;2023-05-23T05:15:28;100521.16;;;22.46;100.00
49377;BME280;35253;34.688;33.040;2023-05-23T05:17:54;100527.75;;;22.44;100.00
49377;BME280;35253;34.688;33.040;2023-05-23T05:20:20;100520.28;;;22.54;100.00
49377;BME280;35253;34.688;33.040;2023-05-23T05:22:49;100532.84;;;22.63;100.00
49377;BME280;35253;34.688;33.040;2023-05-23T05:25:19;100528.44;;;22.46;100.00
49377;BME280;35253;34.688;33.040;2023-05-23T05:27:45;100529.63;;;22.60;100.00
49377;BME280;35253;34.688;33.040;2023-05-23T05:30:11;100530.78;;;22.65;100.00
49377;BME280;35253;34.688;33.040;2023-05-23T05:32:37;100540.84;;;22.73;100.00
49377;BME280;35253;34.688;33.040;2023-05-23T05:35:02;100536.41;;;22.80;100.00
49377;BME280;35253;34.688;33.040;2023-05-23T05:37:28;100546.91;;;22.99;100.00
49377;BME280;35253;34.688;33.040;2023-05-23T05:39:55;100544.28;;;23.22;100.00
49377;BME280;35253;34.688;33.040;2023-05-23T05:42:21;100542.81;;;23.03;100.00
49377;BME280;35253;34.688;33.040;2023-05-23T05:44:47;100548.75;;;23.07;100.00
49377;BME280;35253;34.688;33.040;2023-05-23T05:47:14;100551.09;;;23.18;100.00
49377;BME280;35253;34.688;33.040;2023-05-23T05:49:40;100557.69;;;23.31;100.00
49377;BME280;35253;34.688;33.040;2023-05-23T05:52:06;100552.88;;;23.42;100.00
49377;BME280;35253;34.688;33.040;2023-05-23T05:54:33;100560.72;;;23.45;100.00
49377;BME280;35253;34.688;33.040;2023-05-23T05:56:58;100566.38;;;23.27;100.00
49377;BME280;35253;34.688;33.040;2023-05-23T05:59:24;100571.84;;;23.11;100.00
49377;BME280;35253;34.688;33.040;2023-05-23T06:01:51;100580.34;;;23.16;100.00
49377;BME280;35253;34.688;33.040;2023-05-23T06:04:16;100581.94;;;22.94;100.00
49377;BME280;35253;34.688;33.040;2023-05-23T06:06:42;100583.59;;;22.95;100.00
49377;BME280;35253;34.688;33.040;2023-05-23T06:09:08;100591.78;;;22.87;100.00
49377;BME280;35253;34.688;33.040;2023-05-23T06:11:35;100594.00;;;22.75;100.00
49377;BME280;35253;34.688;33.040;2023-05-23T06:14:05;100588.00;;;23.04;100.00
49377;BME280;35253;34.688;33.040;2023-05-23T06:16:31;100589.47;;;23.31;100.00
49377;BME280;35253;34.688;33.040;2023-05-23T06:18:57;100603.81;;;23.01;100.00
49377;BME280;35253;34.688;33.040;2023-05-23T06:21:22;100597.72;;;22.82;100.00
49377;BME280;35253;34.688;33.040;2023-05-23T06:23:48;100592.66;;;22.71;100.00
49377;BME280;35253;34.688;33.040;2023-05-23T06:26:14;100606.19;;;22.47;100.00
49377;BME280;35253;34.688;33.040;2023-05-23T06:28:40;100615.19;;;22.39;100.00
49377;BME280;35253;34.688;33.040;2023-05-23T06:31:05;100612.34;;;22.73;100.00
49377;BME280;35253;34.688;33.040;2023-05-23T06:33:31;100616.03;;;22.64;100.00
49377;BME280;35253;34.688;33.040;2023-05-23T06:35:57;100613.69;;;22.77;100.00
49377;BME280;35253;34.688;33.040;2023-05-23T06:38:28;100621.16;;;22.67;100.00
49377;BME280;35253;34.688;33.040;2023-05-23T06:40:55;100624.41;;;23.03;100.00
49377;BME280;35253;34.688;33.040;2023-05-23T06:43:21;100624.53;;;23.10;100.00
49377;BME280;35253;34.688;33.040;2023-05-23T06:45:47;100629.84;;;23.03;100.00
49377;BME280;35253;34.688;33.040;2023-05-23T06:48:12;100631.38;;;22.98;100.00
49377;BME280;35253;34.688;33.040;2023-05-23T06:50:39;100633.75;;;22.92;100.00
49377;BME280;35253;34.688;33.040;2023-05-23T06:53:05;100640.00;;;23.09;100.00
49377;BME280;35253;34.688;33.040;2023-05-23T06:55:31;100623.38;;;23.12;100.00
49377;BME280;35253;34.688;33.040;2023-05-23T06:57:59;100620.09;;;23.33;100.00
49377;BME280;35253;34.688;33.040;2023-05-23T07:00:25;100626.91;;;23.21;100.00
49377;BME280;35253;34.688;33.040;2023-05-23T07:02:51;100627.63;;;23.07;100.00
49377;BME280;35253;34.688;33.040;2023-05-23T07:05:16;100623.56;;;23.03;100.00
49377;BME280;35253;34.688;33.040;2023-05-23T07:07:44;100630.00;;;23.02;100.00
49377;BME280;35253;34.688;33.040;2023-05-23T07:10:10;100621.19;;;22.75;100.00
49377;BME280;35253;34.688;33.040;2023-05-23T07:12:35;100628.25;;;23.17;100.00
49377;BME280;35253;34.688;33.040;2023-05-23T07:15:01;100631.09;;;23.40;100.00
49377;BME280;35253;34.688;33.040;2023-05-23T07:17:27;100640.63;;;23.35;100.00
49377;BME280;35253;34.688;33.040;2023-05-23T07:19:54;100635.69;;;23.55;100.00
49377;BME280;35253;34.688;33.040;2023-05-23T07:22:20;100636.59;;;23.78;100.00
49377;BME280;35253;34.688;33.040;2023-05-23T07:24:46;100634.75;;;23.16;100.00
49377;BME280;35253;34.688;33.040;2023-05-23T07:27:12;100638.44;;;23.31;100.00
49377;BME280;35253;34.688;33.040;2023-05-23T07:29:38;100637.41;;;23.48;100.00
49377;BME280;35253;34.688;33.040;2023-05-23T07:32:04;100650.22;;;23.87;100.00
49377;BME280;35253;34.688;33.040;2023-05-23T07:34:30;100650.00;;;23.49;100.00
49377;BME280;35253;34.688;33.040;2023-05-23T07:36:56;100647.75;;;23.53;100.00
49377;BME280;35253;34.688;33.040;2023-05-23T07:39:21;100653.22;;;23.36;100.00
49377;BME280;35253;34.688;33.040;2023-05-23T07:41:49;100648.28;;;23.56;100.00
49377;BME280;35253;34.688;33.040;2023-05-23T07:44:16;100643.25;;;23.21;100.00
49377;BME280;35253;34.688;33.040;2023-05-23T07:46:42;100645.44;;;23.33;100.00
49377;BME280;35253;34.688;33.040;2023-05-23T07:49:08;100652.06;;;23.47;100.00
49377;BME280;35253;34.688;33.040;2023-05-23T07:51:33;100652.06;;;23.23;100.00
49377;BME280;35253;34.688;33.040;2023-05-23T07:53:59;100651.72;;;23.26;100.00
49377;BME280;35253;34.688;33.040;2023-05-23T07:56:25;100663.75;;;23.40;100.00
49377;BME280;35253;34.688;33.040;2023-05-23T07:58:51;100656.81;;;23.45;100.00
49377;BME280;35253;34.688;33.040;2023-05-23T08:01:17;100660.38;;;23.21;100.00
49377;BME280;35253;34.688;33.040;2023-05-23T08:03:43;100657.81;;;23.36;100.00
49377;BME280;35253;34.688;33.040;2023-05-23T08:06:08;100661.88;;;23.64;100.00
49377;BME280;35253;34.688;33.040;2023-05-23T08:08:34;100660.84;;;23.57;100.00
49377;BME280;35253;34.688;33.040;2023-05-23T08:11:01;100669.06;;;23.33;100.00
49377;BME280;35253;34.688;33.040;2023-05-23T08:13:26;100676.88;;;23.28;100.00
49377;BME280;35253;34.688;33.040;2023-05-23T08:15:53;100669.91;;;23.33;100.00
49377;BME280;35253;34.688;33.040;2023-05-23T08:18:18;100671.91;;;23.40;100.00
49377;BME280;35253;34.688;33.040;2023-05-23T08:20:44;100672.78;;;23.48;100.00
49377;BME280;35253;34.688;33.040;2023-05-23T08:23:10;100664.28;;;23.43;100.00
49377;BME280;35253;34.688;33.040;2023-05-23T08:25:37;100678.53;;;23.61;100.00
49377;BME280;35253;34.688;33.040;2023-05-23T08:28:02;100681.22;;;23.77;100.00
49377;BME280;35253;34.688;33.040;2023-05-23T08:30:28;100681.28;;;23.53;100.00
49377;BME280;35253;34.688;33.040;2023-05-23T08:32:55;100684.66;;;23.63;100.00
49377;BME280;35253;34.688;33.040;2023-05-23T08:35:21;100673.06;;;23.77;100.00
49377;BME280;35253;34.688;33.040;2023-05-23T08:37:47;100670.69;;;24.05;100.00
49377;BME280;35253;34.688;33.040;2023-05-23T08:40:18;100677.69;;;24.08;100.00
49377;BME280;35253;34.688;33.040;2023-05-23T08:42:46;100667.44;;;24.10;100.00
49377;BME280;35253;34.688;33.040;2023-05-23T08:45:13;100674.75;;;24.09;100.00
49377;BME280;35253;34.688;33.040;2023-05-23T08:47:42;100692.09;;;23.77;100.00
49377;BME280;35253;34.688;33.040;2023-05-23T08:50:18;100682.28;;;23.60;100.00
49377;BME280;35253;34.688;33.040;2023-05-23T08:52:53;100682.50;;;23.98;100.00
49377;BME280;35253;34.688;33.040;2023-05-23T08:55:22;100676.41;;;23.88;100.00
49377;BME280;35253;34.688;33.040;2023-05-23T08:57:49;100675.59;;;24.18;100.00
49377;BME280;35253;34.688;33.040;2023-05-23T09:00:16;100673.06;;;24.16;100.00
49377;BME280;35253;34.688;33.040;2023-05-23T09:02:43;100672.41;;;24.06;100.00
49377;BME280;35253;34.688;33.040;2023-05-23T09:05:12;100669.31;;;24.17;100.00
49377;BME280;35253;34.688;33.040;2023-05-23T09:07:44;100688.25;;;24.03;100.00
49377;BME280;35253;34.688;33.040;2023-05-23T09:10:12;100678.53;;;23.61;100.00
49377;BME280;35253;34.688;33.040;2023-05-23T09:12:39;100671.16;;;23.86;100.00
49377;BME280;35253;34.688;33.040;2023-05-23T09:15:06;100677.47;;;24.09;100.00
49377;BME280;35253;34.688;33.040;2023-05-23T09:17:35;100688.91;;;24.05;100.00
49377;BME280;35253;34.688;33.040;2023-05-23T09:20:01;100666.78;;;24.16;100.00
49377;BME280;35253;34.688;33.040;2023-05-23T09:22:29;100670.41;;;23.92;100.00
49377;BME280;35253;34.688;33.040;2023-05-23T09:24:55;100684.13;;;23.68;100.00
49377;BME280;35253;34.688;33.040;2023-05-23T09:27:22;100696.31;;;24.27;100.00
49377;BME280;35253;34.688;33.040;2023-05-23T09:29:50;100678.00;;;24.21;100.00
49377;BME280;35253;34.688;33.040;2023-05-23T09:32:17;100669.88;;;24.36;100.00
49377;BME280;35253;34.688;33.040;2023-05-23T09:34:56;100677.94;;;23.90;100.00
49377;BME280;35253;34.688;33.040;2023-05-23T09:37:28;100678.66;;;24.15;100.00
49377;BME280;35253;34.688;33.040;2023-05-23T09:39:56;100696.50;;;23.87;100.00
49377;BME280;35253;34.688;33.040;2023-05-23T09:42:23;100681.69;;;23.89;100.00
49377;BME280;35253;34.688;33.040;2023-05-23T09:44:49;100690.94;;;24.11;100.00
49377;BME280;35253;34.688;33.040;2023-05-23T09:47:15;100683.16;;;24.00;100.00
49377;BME280;35253;34.688;33.040;2023-05-23T09:49:45;100706.44;;;24.10;100.00
49377;BME280;35253;34.688;33.040;2023-05-23T09:52:11;100693.38;;;23.98;100.00
49377;BME280;35253;34.688;33.040;2023-05-23T09:54:38;100679.63;;;24.30;100.00
49377;BME280;35253;34.688;33.040;2023-05-23T09:57:09;100676.91;;;24.53;100.00
49377;BME280;35253;34.688;33.040;2023-05-23T09:59:38;100681.66;;;24.82;100.00
49377;BME280;35253;34.688;33.040;2023-05-23T10:02:06;100683.16;;;24.39;100.00
49377;BME280;35253;34.688;33.040;2023-05-23T10:04:34;100684.66;;;24.41;100.00
49377;BME280;35253;34.688;33.040;2023-05-23T10:07:18;100681.72;;;24.51;100.00
49377;BME280;35253;34.688;33.040;2023-05-23T10:09:49;100684.97;;;24.46;100.00
49377;BME280;35253;34.688;33.040;2023-05-23T10:15:08;100681.22;;;24.47;100.00
49377;BME280;35253;34.688;33.040;2023-05-23T10:20:22;100687.53;;;24.70;100.00
49377;BME280;35253;34.688;33.040;2023-05-23T10:22:50;100700.06;;;24.80;100.00
49377;BME280;35253;34.688;33.040;2023-05-23T10:25:16;100689.72;;;24.52;100.00
49377;BME280;35253;34.688;33.040;2023-05-23T10:27:43;100689.97;;;24.65;100.00
49377;BME280;35253;34.688;33.040;2023-05-23T10:30:09;100694.94;;;24.85;100.00
49377;BME280;35253;34.688;33.040;2023-05-23T10:32:37;100690.28;;;24.40;100.00
49377;BME280;35253;34.688;33.040;2023-05-23T10:35:14;100699.19;;;24.64;100.00
49377;BME280;35253;34.688;33.040;2023-05-23T10:37:51;100704.53;;;25.03;100.00
49377;BME280;35253;34.688;33.040;2023-05-23T10:40:33;100704.50;;;24.58;100.00
49377;BME280;35253;34.688;33.040;2023-05-23T10:43:12;100693.59;;;24.81;100.00
49377;BME280;35253;34.688;33.040;2023-05-23T10:45:41;100694.38;;;24.66;100.00
49377;BME280;35253;34.688;33.040;2023-05-23T10:51:05;100703.69;;;24.49;100.00
49377;BME280;35253;34.688;33.040;2023-05-23T10:53:34;100699.28;;;24.71;100.00
49377;BME280;35253;34.688;33.040;2023-05-23T10:56:01;100686.31;;;24.50;100.00
49377;BME280;35253;34.688;33.040;2023-05-23T10:58:29;100698.81;;;24.67;100.00
49377;BME280;35253;34.688;33.040;2023-05-23T11:00:59;100695.00;;;24.77;100.00
49377;BME280;35253;34.688;33.040;2023-05-23T11:03:49;100700.00;;;24.42;100.00
49377;BME280;35253;34.688;33.040;2023-05-23T11:06:31;100701.09;;;24.56;100.00
49377;BME280;35253;34.688;33.040;2023-05-23T11:09:18;100705.84;;;24.31;100.00
49377;BME280;35253;34.688;33.040;2023-05-23T11:11:52;100699.38;;;24.32;100.00
49377;BME280;35253;34.688;33.040;2023-05-23T11:15:05;100700.72;;;24.36;100.00
49377;BME280;35253;34.688;33.040;2023-05-23T11:19:37;100695.00;;;24.77;100.00
49377;BME280;35253;34.688;33.040;2023-05-23T11:22:05;100739.22;;;24.64;100.00
49377;BME280;35253;34.688;33.040;2023-05-23T11:24:51;100714.03;;;25.07;100.00
49377;BME280;35253;34.688;33.040;2023-05-23T11:27:34;100702.47;;;24.83;100.00
49377;BME280;35253;34.688;33.040;2023-05-23T11:30:12;100721.97;;;25.17;100.00
49377;BME280;35253;34.688;33.040;2023-05-23T11:32:38;100734.47;;;24.58;100.00
49377;BME280;35253;34.688;33.040;2023-05-23T11:35:09;100730.28;;;24.47;100.00
49377;BME280;35253;34.688;33.040;2023-05-23T11:37:37;100725.91;;;24.38;100.00
49377;BME280;35253;34.688;33.040;2023-05-23T11:55:31;100738.59;;;24.23;100.00
49377;BME280;35253;34.688;33.040;2023-05-23T11:57:56;100739.22;;;24.33;100.00
49377;BME280;35253;34.688;33.040;2023-05-23T12:00:22;100734.22;;;24.45;100.00
49377;BME280;35253;34.688;33.040;2023-05-23T12:02:48;100743.59;;;24.73;100.00
49377;BME280;35253;34.688;33.040;2023-05-23T12:05:14;100736.97;;;24.67;100.00
49377;BME280;35253;34.688;33.040;2023-05-23T12:07:47;100734.53;;;25.26;100.00
49377;BME280;35253;34.688;33.040;2023-05-23T12:10:14;100736.56;;;25.24;100.00
49377;BME280;35253;34.688;33.040;2023-05-23T12:12:46;100735.53;;;24.80;100.00
49377;BME280;35253;34.688;33.040;2023-05-23T12:15:12;100742.31;;;24.92;100.00
49377;BME280;35253;34.688;33.040;2023-05-23T12:17:38;100746.53;;;24.63;100.00
49377;BME280;35253;34.688;33.040;2023-05-23T12:20:10;100739.69;;;25.21;100.00
49377;BME280;35253;34.688;33.040;2023-05-23T12:22:36;100742.25;;;25.75;100.00
49377;BME280;35253;34.688;33.040;2023-05-23T12:25:01;100738.66;;;25.60;100.00
49377;BME280;35253;34.688;33.040;2023-05-23T12:27:32;100739.59;;;24.84;100.00
49377;BME280;35253;34.688;33.040;2023-05-23T12:30:06;100737.72;;;24.92;100.00
49377;BME280;35253;34.688;33.040;2023-05-23T12:32:32;100748.03;;;24.74;100.00
49377;BME280;35253;34.688;33.040;2023-05-23T12:34:58;100742.66;;;24.89;100.00
49377;BME280;35253;34.688;33.040;2023-05-23T12:37:24;100742.84;;;24.87;100.00
49377;BME280;35253;34.688;33.040;2023-05-23T12:39:50;100743.16;;;24.84;100.00
49377;BME280;35253;34.688;33.040;2023-05-23T12:42:16;100751.28;;;24.69;100.00
49377;BME280;35253;34.688;33.040;2023-05-23T12:44:41;100752.91;;;24.87;100.00
49377;BME280;35253;34.688;33.040;2023-05-23T12:47:11;100752.63;;;24.74;100.00
49377;BME280;35253;34.688;33.040;2023-05-23T12:49:37;100747.63;;;24.54;100.00
49377;BME280;35253;34.688;33.040;2023-05-23T12:52:03;100750.72;;;24.51;100.00
49377;BME280;35253;34.688;33.040;2023-05-23T12:54:29;100744.00;;;24.62;100.00
49377;BME280;35253;34.688;33.040;2023-05-23T12:56:55;100743.28;;;24.68;100.00
49377;BME280;35253;34.688;33.040;2023-05-23T12:59:20;100750.34;;;25.08;100.00
49377;BME280;35253;34.688;33.040;2023-05-23T13:01:46;100745.06;;;25.29;100.00
49377;BME280;35253;34.688;33.040;2023-05-23T13:04:12;100744.97;;;25.00;100.00